Time;durP1;ratioP1;P1;durP2;ratioP2;P2;SDS_P1;SDS_P2;PMS_P1;PMS_P2;Temp;Humidity;BMP_temperature;BMP_pressure;BME280_temperature;BME280_humidity;BME280_pressure;Samples;Min_cycle;Max_cycle;Signal;HPM_P1;HPM_P2
2021/09/27 00:01:03;;;;;;;8.82;5.90;;;18.40;99.90;;;;;;5030592;28;20215;-71
2021/09/27 00:03:30;;;;;;;11.10;5.60;;;18.30;99.90;;;;;;5031453;28;20641;-71
2021/09/27 00:05:58;;;;;;;9.05;5.32;;;18.30;99.90;;;;;;5030318;28;20227;-71
2021/09/27 00:08:26;;;;;;;10.73;6.40;;;18.30;99.90;;;;;;5031194;28;20209;-71
2021/09/27 00:10:57;;;;;;;9.23;6.45;;;18.20;99.90;;;;;;5031677;28;20199;-71
2021/09/27 00:13:26;;;;;;;9.27;6.07;;;18.30;99.90;;;;;;5030907;28;20200;-71
2021/09/27 00:15:55;;;;;;;9.07;5.82;;;18.30;99.90;;;;;;5031440;28;20199;-71
2021/09/27 00:18:22;;;;;;;8.57;5.25;;;18.30;99.90;;;;;;5029326;28;20641;-71
2021/09/27 00:20:52;;;;;;;9.90;5.85;;;18.30;99.90;;;;;;5029651;28;20218;-71
2021/09/27 00:23:20;;;;;;;8.98;5.72;;;18.30;99.90;;;;;;5029746;28;20195;-71
2021/09/27 00:25:49;;;;;;;9.75;6.22;;;18.30;99.90;;;;;;5031290;28;20564;-71
2021/09/27 00:28:17;;;;;;;6.95;6.10;;;18.30;99.90;;;;;;5031137;28;20633;-71
2021/09/27 00:30:47;;;;;;;8.93;5.38;;;18.20;99.90;;;;;;5031401;28;20215;-71
2021/09/27 00:33:14;;;;;;;7.07;5.60;;;18.10;99.90;;;;;;5031023;28;20258;-71
2021/09/27 00:35:41;;;;;;;7.85;5.53;;;18.20;99.90;;;;;;5031860;28;20211;-71
2021/09/27 00:38:10;;;;;;;7.90;5.80;;;18.30;99.90;;;;;;5032016;28;20208;-71
2021/09/27 00:40:40;;;;;;;9.30;5.53;;;18.20;99.90;;;;;;5031032;28;20207;-71
2021/09/27 00:43:10;;;;;;;6.68;5.15;;;18.10;99.90;;;;;;5030650;28;20209;-71
2021/09/27 00:45:40;;;;;;;8.85;5.07;;;18.20;99.90;;;;;;5032250;28;20209;-71
2021/09/27 00:48:08;;;;;;;6.57;5.20;;;18.20;99.90;;;;;;5031423;28;20203;-71
2021/09/27 00:50:41;;;;;;;7.70;4.90;;;18.20;99.90;;;;;;5031810;28;20200;-71
2021/09/27 00:53:14;;;;;;;11.10;6.15;;;18.20;99.90;;;;;;5031966;28;20210;-71
2021/09/27 00:55:42;;;;;;;8.10;5.47;;;18.20;99.90;;;;;;5031973;28;20207;-70
2021/09/27 00:58:10;;;;;;;9.13;5.85;;;18.20;99.90;;;;;;5031727;28;20199;-70
2021/09/27 01:00:37;;;;;;;11.95;7.88;;;18.20;99.90;;;;;;5031060;28;20203;-71
2021/09/27 01:03:04;;;;;;;10.63;7.97;;;18.20;99.90;;;;;;5031012;28;20200;-70
2021/09/27 01:05:37;;;;;;;10.70;7.78;;;18.10;99.90;;;;;;5030594;28;20200;-71
2021/09/27 01:08:18;;;;;;;8.63;7.15;;;18.10;99.90;;;;;;5025769;28;20562;-70
2021/09/27 01:11:08;;;;;;;9.65;7.00;;;18.10;99.90;;;;;;5030176;28;20213;-71
2021/09/27 01:14:10;;;;;;;11.18;7.88;;;18.10;99.90;;;;;;5029744;28;20203;-71
2021/09/27 01:16:47;;;;;;;11.90;8.45;;;18.10;99.90;;;;;;5029520;28;20202;-71
2021/09/27 01:19:51;;;;;;;14.20;9.85;;;18.10;99.90;;;;;;5031013;28;20200;-70
2021/09/27 01:22:31;;;;;;;16.63;10.52;;;18.10;99.90;;;;;;5021231;28;20226;-70
2021/09/27 01:25:40;;;;;;;17.25;11.32;;;18.00;99.90;;;;;;5031925;28;20207;-70
2021/09/27 01:28:40;;;;;;;18.83;11.77;;;18.10;99.90;;;;;;4997204;28;20239;-70
2021/09/27 01:31:29;;;;;;;17.05;11.07;;;18.10;99.90;;;;;;5031764;28;20204;-70
2021/09/27 01:34:03;;;;;;;16.58;11.13;;;18.00;99.90;;;;;;5029395;28;20203;-70
2021/09/27 01:36:34;;;;;;;18.70;12.40;;;18.00;99.90;;;;;;5031285;28;20196;-70
2021/09/27 01:39:07;;;;;;;18.45;11.75;;;18.00;99.90;;;;;;5030779;28;20563;-70
2021/09/27 01:41:38;;;;;;;17.55;12.30;;;17.90;99.90;;;;;;5031666;28;20250;-70
2021/09/27 01:44:13;;;;;;;21.88;13.02;;;18.00;99.90;;;;;;5034446;28;20207;-70
2021/09/27 01:46:48;;;;;;;18.63;12.70;;;17.90;99.90;;;;;;5034297;28;20219;-70
2021/09/27 01:49:21;;;;;;;19.70;13.43;;;17.90;99.90;;;;;;5034545;28;20203;-70
2021/09/27 01:51:54;;;;;;;19.98;13.68;;;17.90;99.90;;;;;;5034919;28;20199;-70
2021/09/27 01:54:29;;;;;;;24.33;13.50;;;17.90;99.90;;;;;;5028373;28;20270;-70
2021/09/27 01:57:04;;;;;;;19.98;14.52;;;17.90;99.90;;;;;;5031594;28;20196;-70
2021/09/27 01:59:42;;;;;;;20.80;14.35;;;17.80;99.90;;;;;;5032310;28;20218;-71
2021/09/27 02:02:13;;;;;;;18.83;13.00;;;17.80;99.90;;;;;;5032732;28;20290;-71
2021/09/27 02:04:52;;;;;;;18.42;13.15;;;17.80;99.90;;;;;;5033895;28;20199;-71
2021/09/27 02:07:21;;;;;;;18.85;13.50;;;17.70;99.90;;;;;;5032597;28;20216;-71
2021/09/27 02:09:54;;;;;;;20.50;13.95;;;17.80;99.90;;;;;;5033273;28;20206;-71
2021/09/27 02:12:25;;;;;;;18.15;13.18;;;17.80;99.90;;;;;;5033811;28;20199;-71
2021/09/27 02:14:58;;;;;;;20.15;14.57;;;17.70;99.90;;;;;;5029167;28;20212;-71
2021/09/27 02:17:31;;;;;;;20.08;14.93;;;17.70;99.90;;;;;;5034429;28;20596;-71
2021/09/27 02:20:04;;;;;;;22.27;15.38;;;17.70;99.90;;;;;;5031904;28;20685;-71
2021/09/27 02:22:36;;;;;;;20.70;14.15;;;17.70;99.90;;;;;;5031798;28;20210;-71
2021/09/27 02:25:10;;;;;;;22.38;15.07;;;17.70;99.90;;;;;;5031989;28;20204;-71
2021/09/27 02:27:37;;;;;;;19.77;14.23;;;17.70;99.90;;;;;;5040679;28;20689;-71
2021/09/27 02:30:06;;;;;;;24.02;14.32;;;17.80;99.90;;;;;;5037564;28;20215;-71
2021/09/27 02:32:38;;;;;;;18.83;13.40;;;17.80;99.90;;;;;;5032086;28;20212;-71
2021/09/27 02:35:11;;;;;;;21.55;13.75;;;17.80;99.90;;;;;;5035097;28;20200;-71
2021/09/27 02:37:45;;;;;;;18.20;13.00;;;17.80;99.90;;;;;;5034531;28;20211;-71
2021/09/27 02:40:16;;;;;;;20.25;13.93;;;17.90;99.90;;;;;;5034644;28;20207;-71
2021/09/27 02:42:48;;;;;;;20.42;14.43;;;17.80;99.90;;;;;;5033790;28;20649;-71
2021/09/27 02:45:16;;;;;;;19.98;13.55;;;17.80;99.90;;;;;;5038108;28;20200;-71
2021/09/27 02:47:47;;;;;;;20.10;13.65;;;17.80;99.90;;;;;;5032669;28;20581;-71
2021/09/27 02:50:20;;;;;;;17.02;12.57;;;17.80;99.90;;;;;;5033380;28;20203;-71
2021/09/27 02:52:47;;;;;;;18.23;12.93;;;17.80;99.90;;;;;;5032059;28;20204;-71
2021/09/27 02:55:16;;;;;;;18.30;13.05;;;17.80;99.90;;;;;;5033317;28;20207;-71
2021/09/27 02:58:02;;;;;;;19.45;13.60;;;17.80;99.90;;;;;;5042205;28;20203;-71
2021/09/27 03:00:36;;;;;;;19.08;12.73;;;17.70;99.90;;;;;;5020499;28;20226;-71
2021/09/27 03:03:13;;;;;;;18.13;12.65;;;17.70;99.90;;;;;;5039982;28;20684;-71
2021/09/27 03:05:52;;;;;;;17.60;12.05;;;17.70;99.90;;;;;;5033339;28;20575;-71
2021/09/27 03:08:43;;;;;;;19.13;12.95;;;17.70;99.90;;;;;;5032066;28;20219;-71
2021/09/27 03:11:29;;;;;;;19.27;13.30;;;17.70;99.90;;;;;;5013746;28;20532;-71
2021/09/27 03:14:09;;;;;;;22.55;13.98;;;17.70;99.90;;;;;;5034747;28;20211;-71
2021/09/27 03:16:50;;;;;;;21.30;13.77;;;17.70;99.90;;;;;;5031257;28;20206;-71
2021/09/27 03:19:28;;;;;;;20.13;13.38;;;17.70;99.90;;;;;;5032175;28;20204;-71
2021/09/27 03:22:03;;;;;;;18.25;12.02;;;17.70;99.90;;;;;;5025748;28;20748;-71
2021/09/27 03:24:57;;;;;;;27.02;13.13;;;17.70;99.90;;;;;;5032245;28;20203;-71
2021/09/27 03:27:30;;;;;;;20.58;13.73;;;17.80;99.90;;;;;;5029948;28;20591;-71
2021/09/27 03:30:16;;;;;;;17.73;13.00;;;17.80;99.90;;;;;;5032401;28;20218;-71
2021/09/27 03:32:54;;;;;;;17.58;12.63;;;17.80;99.90;;;;;;5025826;28;20716;-71
2021/09/27 03:35:29;;;;;;;18.00;12.80;;;17.70;99.90;;;;;;5031348;28;20195;-71
2021/09/27 03:38:04;;;;;;;18.35;13.05;;;17.80;99.90;;;;;;5031086;28;20206;-71
2021/09/27 03:40:42;;;;;;;19.70;13.88;;;17.80;99.90;;;;;;5040597;28;20210;-71
2021/09/27 03:43:18;;;;;;;19.88;15.30;;;17.80;99.90;;;;;;5031285;28;20210;-71
2021/09/27 03:45:55;;;;;;;19.55;14.43;;;17.80;99.90;;;;;;5032636;28;20218;-71
2021/09/27 03:48:29;;;;;;;20.73;15.27;;;17.80;99.90;;;;;;5030573;28;20590;-71
2021/09/27 03:51:01;;;;;;;19.52;14.15;;;17.80;99.90;;;;;;5032587;28;20225;-71
2021/09/27 03:53:37;;;;;;;23.38;15.02;;;17.80;99.90;;;;;;5030683;28;20207;-71
2021/09/27 03:56:10;;;;;;;20.70;15.15;;;17.80;99.90;;;;;;5032501;28;20203;-71
2021/09/27 03:58:42;;;;;;;16.58;12.75;;;17.80;99.90;;;;;;5030401;28;20646;-71
2021/09/27 04:01:13;;;;;;;17.73;13.40;;;17.80;99.90;;;;;;5032155;28;20204;-71
2021/09/27 04:03:53;;;;;;;19.88;13.90;;;17.80;99.90;;;;;;5025642;28;20250;-71
2021/09/27 04:06:38;;;;;;;21.23;14.93;;;17.70;99.90;;;;;;5027126;28;20249;-71
2021/09/27 04:09:11;;;;;;;18.88;14.65;;;17.70;99.90;;;;;;5030675;28;20792;-71
2021/09/27 04:11:46;;;;;;;21.35;16.15;;;17.70;99.90;;;;;;5032174;28;20207;-71
2021/09/27 04:14:20;;;;;;;20.38;13.60;;;17.70;99.90;;;;;;5030108;28;20212;-71
2021/09/27 04:17:01;;;;;;;19.33;13.23;;;17.60;99.90;;;;;;5031069;28;20221;-71
2021/09/27 04:19:35;;;;;;;15.63;12.20;;;17.60;99.90;;;;;;5030605;28;20203;-71
2021/09/27 04:22:10;;;;;;;17.85;12.13;;;17.70;99.90;;;;;;5031071;28;20206;-71
2021/09/27 04:25:17;;;;;;;18.50;13.05;;;17.70;99.90;;;;;;5030620;28;20208;-71
2021/09/27 04:28:11;;;;;;;18.45;12.15;;;17.70;99.90;;;;;;5020343;28;20591;-70
2021/09/27 04:31:00;;;;;;;17.08;11.65;;;17.60;99.90;;;;;;5044217;28;20211;-71
2021/09/27 04:33:42;;;;;;;16.40;11.75;;;17.70;99.90;;;;;;5030361;28;20575;-71
2021/09/27 04:36:17;;;;;;;19.83;12.25;;;17.60;99.90;;;;;;5045234;28;20207;-71
2021/09/27 04:38:44;;;;;;;18.10;12.75;;;17.70;99.90;;;;;;5030104;28;20200;-71
2021/09/27 04:41:29;;;;;;;17.08;12.07;;;17.60;99.90;;;;;;5030824;28;20200;-71
2021/09/27 04:44:06;;;;;;;19.60;12.73;;;17.60;99.90;;;;;;5030030;28;20294;-71
2021/09/27 04:46:38;;;;;;;18.10;13.65;;;17.60;99.90;;;;;;5024323;28;20199;-71
2021/09/27 04:49:27;;;;;;;20.40;13.93;;;17.50;99.90;;;;;;5030126;28;20235;-71
2021/09/27 04:52:06;;;;;;;17.25;13.93;;;17.50;99.90;;;;;;5030720;28;20563;-71
2021/09/27 04:55:03;;;;;;;22.17;14.77;;;17.50;99.90;;;;;;5034290;28;20248;-71
2021/09/27 04:57:38;;;;;;;18.58;12.70;;;17.40;99.90;;;;;;5032564;28;20207;-71
2021/09/27 05:00:14;;;;;;;18.17;12.27;;;17.40;99.90;;;;;;5029181;28;20206;-71
2021/09/27 05:03:03;;;;;;;19.67;12.18;;;17.40;99.90;;;;;;5028212;28;20206;-71
2021/09/27 05:05:49;;;;;;;16.88;11.90;;;17.30;99.90;;;;;;5028480;28;20203;-71
2021/09/27 05:08:46;;;;;;;17.80;11.95;;;17.30;99.90;;;;;;5029296;28;20219;-71
2021/09/27 05:11:29;;;;;;;15.52;11.32;;;17.20;99.90;;;;;;5029722;28;20270;-71
2021/09/27 05:14:22;;;;;;;16.38;11.45;;;17.20;99.90;;;;;;5030078;28;20195;-71
2021/09/27 05:17:03;;;;;;;19.17;13.10;;;17.20;99.90;;;;;;5031473;28;20212;-71
2021/09/27 05:20:02;;;;;;;16.52;12.50;;;17.20;99.90;;;;;;5034723;28;20577;-71
2021/09/27 05:22:54;;;;;;;16.58;11.93;;;17.30;99.90;;;;;;5031705;28;20203;-71
2021/09/27 05:25:54;;;;;;;14.30;11.45;;;17.20;99.90;;;;;;5032033;28;20191;-71
2021/09/27 05:28:34;;;;;;;17.08;11.75;;;17.20;99.90;;;;;;5014784;28;20231;-71
2021/09/27 05:31:18;;;;;;;15.68;11.30;;;17.30;99.90;;;;;;5029718;28;20214;-71
2021/09/27 05:33:54;;;;;;;18.77;11.48;;;17.20;99.90;;;;;;5034725;28;20228;-71
2021/09/27 05:36:34;;;;;;;23.90;11.60;;;17.20;99.90;;;;;;5031686;28;20199;-71
2021/09/27 05:39:10;;;;;;;15.50;11.07;;;17.10;99.90;;;;;;5029908;28;20649;-71
2021/09/27 05:41:50;;;;;;;14.82;10.68;;;17.00;99.90;;;;;;5042399;28;20676;-71
2021/09/27 05:44:34;;;;;;;17.67;10.88;;;17.00;99.90;;;;;;5045303;28;20685;-71
2021/09/27 05:47:13;;;;;;;15.18;11.15;;;16.90;99.90;;;;;;5033642;28;20218;-71
2021/09/27 05:49:49;;;;;;;14.88;10.60;;;16.90;99.90;;;;;;5033790;28;20211;-71
2021/09/27 05:52:25;;;;;;;12.32;9.80;;;16.90;99.90;;;;;;5028139;28;20240;-71
2021/09/27 05:55:01;;;;;;;13.73;10.25;;;16.90;99.90;;;;;;5027648;28;20218;-71
2021/09/27 05:57:35;;;;;;;15.57;11.25;;;16.90;99.90;;;;;;5031410;28;20560;-71
2021/09/27 06:00:10;;;;;;;18.05;11.90;;;16.90;99.90;;;;;;5032570;28;20200;-71
2021/09/27 06:02:52;;;;;;;16.55;11.77;;;16.90;99.90;;;;;;5034214;28;20257;-71
2021/09/27 06:05:27;;;;;;;18.27;12.68;;;16.90;99.90;;;;;;5034215;28;20242;-71
2021/09/27 06:08:00;;;;;;;15.35;11.57;;;16.90;99.90;;;;;;5033068;28;20223;-71
2021/09/27 06:10:35;;;;;;;18.15;12.07;;;16.90;99.90;;;;;;5033865;28;20567;-71
2021/09/27 06:13:12;;;;;;;14.85;11.38;;;16.90;99.90;;;;;;5033835;28;20207;-71
2021/09/27 06:15:47;;;;;;;17.60;12.05;;;16.90;99.90;;;;;;5032924;28;20210;-71
2021/09/27 06:18:32;;;;;;;14.07;11.18;;;17.00;99.90;;;;;;5033473;28;20206;-71
2021/09/27 06:21:14;;;;;;;17.58;12.07;;;16.90;99.90;;;;;;5033352;28;20570;-71
2021/09/27 06:24:02;;;;;;;19.15;13.32;;;17.00;99.90;;;;;;5044102;28;20203;-71
2021/09/27 06:26:33;;;;;;;19.02;13.32;;;16.90;99.90;;;;;;5033035;28;20195;-71
2021/09/27 06:29:03;;;;;;;16.52;12.50;;;16.90;99.90;;;;;;5033444;28;20246;-71
2021/09/27 06:31:36;;;;;;;19.50;13.95;;;17.00;99.90;;;;;;5032791;28;20207;-71
2021/09/27 06:34:10;;;;;;;22.65;14.43;;;17.00;99.90;;;;;;5035034;28;20210;-71
2021/09/27 06:36:38;;;;;;;20.17;13.43;;;17.00;99.90;;;;;;5037616;28;20198;-71
2021/09/27 06:39:11;;;;;;;18.10;14.23;;;17.00;99.90;;;;;;5031839;28;20219;-71
2021/09/27 06:41:40;;;;;;;21.75;13.93;;;17.00;99.90;;;;;;5032874;28;20208;-71
2021/09/27 06:44:06;;;;;;;18.52;13.80;;;17.00;99.90;;;;;;5033579;28;20208;-71
2021/09/27 06:46:33;;;;;;;19.00;13.68;;;16.90;99.90;;;;;;5032777;28;20199;-71
2021/09/27 06:49:00;;;;;;;19.77;15.20;;;17.00;99.90;;;;;;5032723;28;20246;-71
2021/09/27 06:51:29;;;;;;;19.92;14.27;;;17.00;99.90;;;;;;5032566;28;20817;-71
2021/09/27 06:53:55;;;;;;;18.02;14.25;;;17.10;99.90;;;;;;5032897;28;20208;-71
2021/09/27 06:56:22;;;;;;;17.98;14.00;;;17.10;99.90;;;;;;5032855;28;20558;-71
2021/09/27 06:58:49;;;;;;;20.30;13.60;;;17.20;99.90;;;;;;5027404;28;20206;-71
2021/09/27 07:01:16;;;;;;;18.67;13.48;;;17.30;99.90;;;;;;5031458;28;20302;-71
2021/09/27 07:03:43;;;;;;;18.90;13.55;;;17.20;99.90;;;;;;5031811;28;20204;-71
2021/09/27 07:06:09;;;;;;;19.45;13.73;;;17.40;99.90;;;;;;5032720;28;20210;-71
2021/09/27 07:08:38;;;;;;;19.70;14.63;;;17.50;99.90;;;;;;5032118;28;20594;-71
2021/09/27 07:11:04;;;;;;;20.02;14.23;;;17.40;99.90;;;;;;5033245;28;20290;-71
2021/09/27 07:13:31;;;;;;;17.42;13.82;;;17.40;99.90;;;;;;5032974;28;20214;-71
2021/09/27 07:15:58;;;;;;;18.92;14.02;;;17.40;99.90;;;;;;5031662;28;20206;-71
2021/09/27 07:18:25;;;;;;;18.88;15.13;;;17.60;99.90;;;;;;5032754;28;20198;-71
2021/09/27 07:20:52;;;;;;;18.98;14.80;;;17.70;99.90;;;;;;5032120;28;20439;-71
2021/09/27 07:23:19;;;;;;;21.65;15.02;;;17.80;99.90;;;;;;5032289;28;20210;-71
2021/09/27 07:25:47;;;;;;;21.45;14.73;;;17.80;99.90;;;;;;5032457;28;20230;-71
2021/09/27 07:28:14;;;;;;;20.27;13.73;;;17.90;99.90;;;;;;5031960;28;20220;-71
2021/09/27 07:30:41;;;;;;;19.67;14.73;;;18.00;99.90;;;;;;5031618;28;20219;-72
2021/09/27 07:33:08;;;;;;;18.40;14.73;;;18.60;99.90;;;;;;5032250;28;20242;-71
2021/09/27 07:35:35;;;;;;;20.70;14.40;;;19.40;99.90;;;;;;5032955;28;20663;-71
2021/09/27 07:38:02;;;;;;;19.25;13.70;;;19.60;99.90;;;;;;5032270;28;20208;-71
2021/09/27 07:40:31;;;;;;;19.70;14.40;;;19.20;99.90;;;;;;5031693;28;20206;-71
2021/09/27 07:43:00;;;;;;;21.38;14.52;;;18.90;99.90;;;;;;5031591;28;20226;-71
2021/09/27 07:45:33;;;;;;;20.60;15.70;;;18.70;99.90;;;;;;5031993;28;20199;-71
2021/09/27 07:48:00;;;;;;;19.42;14.43;;;18.70;99.90;;;;;;5031413;28;20196;-71
2021/09/27 07:50:27;;;;;;;20.65;15.73;;;18.80;99.90;;;;;;5033308;28;20200;-71
2021/09/27 07:52:53;;;;;;;21.90;16.48;;;19.40;99.90;;;;;;5032450;28;20199;-71
2021/09/27 07:55:21;;;;;;;21.70;16.73;;;19.10;99.90;;;;;;5031829;28;20733;-71
2021/09/27 07:57:48;;;;;;;17.70;14.05;;;19.50;99.90;;;;;;5031393;28;20214;-71
2021/09/27 08:00:18;;;;;;;22.67;15.57;;;19.20;99.90;;;;;;5031288;28;20214;-71
2021/09/27 08:02:46;;;;;;;20.00;14.82;;;19.00;99.90;;;;;;5029874;28;20203;-72
2021/09/27 08:05:17;;;;;;;20.17;14.50;;;18.90;99.90;;;;;;5032210;28;20578;-71
2021/09/27 08:07:44;;;;;;;19.00;15.38;;;18.90;99.90;;;;;;5029441;28;20220;-72
2021/09/27 08:10:13;;;;;;;19.88;14.77;;;18.80;99.90;;;;;;5028942;28;20215;-71
2021/09/27 08:12:40;;;;;;;19.10;15.07;;;18.80;99.90;;;;;;5030398;28;20204;-71
2021/09/27 08:15:11;;;;;;;20.83;15.73;;;18.90;99.90;;;;;;5030629;28;20199;-71
2021/09/27 08:17:39;;;;;;;19.98;15.80;;;18.90;99.90;;;;;;5029202;28;20208;-71
2021/09/27 08:20:10;;;;;;;20.55;16.63;;;18.90;99.90;;;;;;5034026;28;20793;-71
2021/09/27 08:22:37;;;;;;;20.50;15.25;;;19.00;99.90;;;;;;5030279;28;20204;-71
2021/09/27 08:25:05;;;;;;;20.48;15.50;;;19.10;99.90;;;;;;5030223;28;20219;-71
2021/09/27 08:27:32;;;;;;;20.52;16.45;;;19.30;99.90;;;;;;5031242;28;20209;-71
2021/09/27 08:29:59;;;;;;;20.80;15.82;;;19.30;99.90;;;;;;5029178;28;20366;-72
2021/09/27 08:32:26;;;;;;;21.05;15.57;;;19.30;99.90;;;;;;5030511;28;20204;-71
2021/09/27 08:34:54;;;;;;;21.38;15.65;;;19.30;99.90;;;;;;5029457;28;20191;-71
2021/09/27 08:37:21;;;;;;;19.58;14.98;;;19.30;99.90;;;;;;5032166;28;20200;-71
2021/09/27 08:39:48;;;;;;;19.80;14.18;;;19.30;99.90;;;;;;5030744;28;20199;-72
2021/09/27 08:42:20;;;;;;;20.55;15.18;;;19.30;99.90;;;;;;5031026;28;20642;-72
2021/09/27 08:44:53;;;;;;;18.27;14.18;;;19.40;99.90;;;;;;5028987;28;20210;-72
2021/09/27 08:47:27;;;;;;;17.80;13.18;;;19.40;99.90;;;;;;5029454;28;20200;-72
2021/09/27 08:49:58;;;;;;;17.42;13.48;;;19.50;99.90;;;;;;5030960;28;20226;-73
2021/09/27 08:52:30;;;;;;;19.38;14.38;;;19.60;99.90;;;;;;5031442;28;20211;-72
2021/09/27 08:54:57;;;;;;;20.08;13.68;;;19.70;99.90;;;;;;5031165;28;20724;-73
2021/09/27 08:57:35;;;;;;;18.38;13.55;;;19.70;99.90;;;;;;5030508;28;20214;-72
2021/09/27 09:00:11;;;;;;;18.23;13.63;;;19.70;99.90;;;;;;5031264;28;20199;-72
2021/09/27 09:02:47;;;;;;;17.25;13.05;;;19.80;99.90;;;;;;5029171;28;20207;-72
2021/09/27 09:05:20;;;;;;;17.60;12.70;;;19.80;99.90;;;;;;5027436;28;20199;-72
2021/09/27 09:07:54;;;;;;;18.30;13.80;;;20.00;99.90;;;;;;5025134;28;20207;-72
2021/09/27 09:10:35;;;;;;;18.40;13.27;;;20.20;99.90;;;;;;5027742;28;20257;-72
2021/09/27 09:13:05;;;;;;;16.98;12.60;;;20.20;99.90;;;;;;5024933;28;20212;-72
2021/09/27 09:15:34;;;;;;;16.27;13.20;;;20.10;99.90;;;;;;5028977;28;20443;-72
2021/09/27 09:18:06;;;;;;;17.00;12.85;;;20.00;99.90;;;;;;5027639;28;20200;-72
2021/09/27 09:20:54;;;;;;;18.73;12.85;;;20.00;99.90;;;;;;5029864;28;20539;-72
2021/09/27 09:23:29;;;;;;;16.73;12.85;;;20.10;99.90;;;;;;5029077;28;20576;-72
2021/09/27 09:25:56;;;;;;;16.98;12.80;;;20.20;99.90;;;;;;5030649;28;20214;-72
2021/09/27 09:28:23;;;;;;;17.00;13.18;;;20.10;99.90;;;;;;5030445;28;20210;-72
2021/09/27 09:30:55;;;;;;;17.10;12.90;;;20.20;99.90;;;;;;5030641;28;20200;-73
2021/09/27 09:33:36;;;;;;;16.55;12.35;;;20.40;99.90;;;;;;5030949;28;20213;-72
2021/09/27 09:36:05;;;;;;;17.17;12.48;;;20.30;99.90;;;;;;5027855;28;20208;-72
2021/09/27 09:38:35;;;;;;;16.52;12.07;;;20.60;99.90;;;;;;5030360;28;20677;-72
2021/09/27 09:41:02;;;;;;;17.00;12.73;;;20.70;99.90;;;;;;5030404;28;20249;-72
2021/09/27 09:43:31;;;;;;;17.02;13.23;;;21.00;99.90;;;;;;5031317;28;20206;-72
2021/09/27 09:46:06;;;;;;;16.08;11.80;;;21.30;99.90;;;;;;5031702;28;20219;-73
2021/09/27 09:48:33;;;;;;;17.67;12.60;;;21.20;99.90;;;;;;5029943;28;20295;-72
2021/09/27 09:51:21;;;;;;;15.85;12.57;;;21.50;99.90;;;;;;5030912;28;20196;-72
2021/09/27 09:54:12;;;;;;;15.95;12.25;;;21.60;99.90;;;;;;5028872;28;20672;-73
2021/09/27 09:56:43;;;;;;;15.38;11.40;;;22.10;99.90;;;;;;5029338;28;20207;-72
2021/09/27 09:59:25;;;;;;;12.63;9.77;;;22.10;99.90;;;;;;5027883;28;20200;-73
2021/09/27 10:01:55;;;;;;;13.55;10.45;;;21.90;99.90;;;;;;5024659;28;20258;-72
2021/09/27 10:04:24;;;;;;;12.77;10.02;;;22.20;99.90;;;;;;5026707;28;20204;-72
2021/09/27 10:07:00;;;;;;;12.40;9.60;;;22.20;99.90;;;;;;5032639;28;20207;-73
2021/09/27 10:09:31;;;;;;;11.57;8.75;;;22.60;99.90;;;;;;5028833;28;20215;-73
2021/09/27 10:12:00;;;;;;;11.52;8.40;;;22.80;99.90;;;;;;5034432;28;20208;-73
2021/09/27 10:14:37;;;;;;;10.60;7.93;;;22.10;99.90;;;;;;5033318;28;20680;-73
2021/09/27 10:17:26;;;;;;;10.90;8.05;;;22.40;99.90;;;;;;5034590;28;20208;-73
2021/09/27 10:19:59;;;;;;;10.63;8.30;;;22.40;99.90;;;;;;5034450;28;20207;-73
2021/09/27 10:22:35;;;;;;;8.85;7.50;;;22.50;99.90;;;;;;5034008;28;20198;-72
2021/09/27 10:25:03;;;;;;;10.77;7.68;;;22.80;99.90;;;;;;5033973;28;20237;-72
2021/09/27 10:27:35;;;;;;;8.65;6.97;;;23.00;99.90;;;;;;5033621;28;20196;-72
2021/09/27 10:30:07;;;;;;;9.75;6.97;;;22.60;99.90;;;;;;5031530;28;20224;-73
2021/09/27 10:32:39;;;;;;;8.75;7.00;;;23.10;99.90;;;;;;5033498;28;20208;-73
2021/09/27 10:35:25;;;;;;;8.27;6.72;;;23.00;99.90;;;;;;5032918;28;20191;-73
2021/09/27 10:37:59;;;;;;;9.85;6.40;;;23.10;99.90;;;;;;5033545;28;20555;-73
2021/09/27 10:40:26;;;;;;;9.77;7.07;;;22.90;99.90;;;;;;5026292;28;20192;-73
2021/09/27 10:42:53;;;;;;;8.30;6.82;;;23.10;99.90;;;;;;5033595;28;20211;-73
2021/09/27 10:45:23;;;;;;;9.70;6.45;;;23.40;99.90;;;;;;5033901;28;20650;-72
2021/09/27 10:47:53;;;;;;;7.40;6.65;;;23.30;99.90;;;;;;5032796;28;20680;-73
2021/09/27 10:50:26;;;;;;;7.80;6.75;;;23.20;99.90;;;;;;5033504;28;20273;-72
2021/09/27 10:53:06;;;;;;;10.68;7.10;;;23.30;99.90;;;;;;5025160;28;20677;-72
2021/09/27 10:55:49;;;;;;;8.70;6.53;;;23.30;99.90;;;;;;5028485;28;20314;-72
2021/09/27 10:58:37;;;;;;;9.60;5.97;;;22.70;99.90;;;;;;5024835;28;20559;-72
2021/09/27 11:01:06;;;;;;;9.55;6.35;;;23.20;99.90;;;;;;5027598;28;20779;-73
2021/09/27 11:03:38;;;;;;;8.82;5.93;;;23.70;99.90;;;;;;5028255;28;20212;-73
2021/09/27 11:06:25;;;;;;;8.18;5.20;;;23.80;99.90;;;;;;5027855;28;20204;-73
2021/09/27 11:09:00;;;;;;;8.88;5.47;;;23.20;99.90;;;;;;5025469;28;20584;-72
2021/09/27 11:11:55;;;;;;;8.77;5.80;;;23.20;99.90;;;;;;5029182;28;20223;-72
2021/09/27 11:14:27;;;;;;;6.57;5.00;;;23.30;99.90;;;;;;5026745;28;20207;-72
2021/09/27 11:17:30;;;;;;;7.00;5.47;;;23.20;99.90;;;;;;5029855;28;20287;-72
2021/09/27 11:20:15;;;;;;;7.05;6.05;;;22.80;99.90;;;;;;5030943;28;20202;-73
2021/09/27 11:22:53;;;;;;;5.85;5.22;;;22.80;99.90;;;;;;5022125;28;20261;-73
2021/09/27 11:25:35;;;;;;;6.07;5.32;;;22.80;99.90;;;;;;5029455;28;20412;-72
2021/09/27 11:28:29;;;;;;;6.63;5.22;;;22.80;99.90;;;;;;5027831;28;20715;-72
2021/09/27 11:31:20;;;;;;;6.55;4.95;;;23.00;99.90;;;;;;5025951;28;20226;-72
2021/09/27 11:33:50;;;;;;;6.05;4.75;;;23.20;99.90;;;;;;5026774;28;20294;-72
2021/09/27 11:36:52;;;;;;;6.13;5.50;;;23.10;99.90;;;;;;5033553;28;20205;-72
2021/09/27 11:39:37;;;;;;;5.95;5.18;;;23.00;99.90;;;;;;5032272;28;20558;-72
2021/09/27 11:42:37;;;;;;;6.65;5.28;;;23.10;99.90;;;;;;5032467;28;20216;-72
2021/09/27 11:45:26;;;;;;;7.50;5.13;;;22.70;99.90;;;;;;4989208;28;20655;-73
2021/09/27 11:48:00;;;;;;;6.18;4.85;;;22.70;99.90;;;;;;5030975;28;20219;-73
2021/09/27 11:51:17;;;;;;;7.57;5.55;;;22.60;99.90;;;;;;5025465;28;20248;-73
2021/09/27 11:54:11;;;;;;;7.05;5.60;;;22.40;99.90;;;;;;5034463;28;20215;-73
2021/09/27 11:56:47;;;;;;;6.57;5.53;;;22.20;99.90;;;;;;5018301;28;20207;-73
2021/09/27 11:59:23;;;;;;;7.55;5.43;;;22.30;99.90;;;;;;5032783;28;20314;-73
2021/09/27 12:01:59;;;;;;;7.75;5.75;;;22.40;99.90;;;;;;5036464;28;20202;-73
2021/09/27 12:04:53;;;;;;;6.13;5.38;;;22.50;99.90;;;;;;5023172;28;20211;-73
2021/09/27 12:07:23;;;;;;;6.72;5.80;;;22.20;99.90;;;;;;5038607;28;20209;-73
2021/09/27 12:09:53;;;;;;;6.72;5.45;;;22.10;99.90;;;;;;5030902;28;20571;-73
2021/09/27 12:12:22;;;;;;;6.35;5.45;;;22.10;99.90;;;;;;5036417;28;20760;-72
2021/09/27 12:14:51;;;;;;;7.90;5.97;;;22.20;99.90;;;;;;5031338;28;20211;-72
2021/09/27 12:17:21;;;;;;;7.03;5.43;;;22.20;99.90;;;;;;5036638;28;20215;-72
2021/09/27 12:19:52;;;;;;;8.23;5.97;;;22.50;99.90;;;;;;5037847;28;20207;-73
2021/09/27 12:22:22;;;;;;;7.03;5.95;;;22.40;99.90;;;;;;5034379;28;20721;-72
2021/09/27 12:24:51;;;;;;;7.25;5.53;;;22.50;99.90;;;;;;5034920;28;20304;-73
2021/09/27 12:27:21;;;;;;;7.28;5.55;;;22.50;99.90;;;;;;5041131;28;20199;-72
2021/09/27 12:29:57;;;;;;;6.65;5.95;;;22.40;99.90;;;;;;5036773;28;20242;-73
2021/09/27 12:32:28;;;;;;;6.40;5.60;;;22.80;99.90;;;;;;5032739;28;20199;-73
2021/09/27 12:34:56;;;;;;;10.65;6.30;;;23.30;99.90;;;;;;5034867;28;20199;-73
2021/09/27 12:37:23;;;;;;;8.48;6.38;;;23.90;99.90;;;;;;5033950;28;20303;-72
2021/09/27 12:39:51;;;;;;;9.73;6.85;;;24.10;99.90;;;;;;5032165;28;20676;-73
2021/09/27 12:42:22;;;;;;;7.97;6.57;;;24.00;99.90;;;;;;5031903;28;20683;-73
2021/09/27 12:44:55;;;;;;;10.45;7.30;;;23.70;99.90;;;;;;5030917;28;20196;-72
2021/09/27 12:47:23;;;;;;;8.30;7.13;;;23.70;99.90;;;;;;5035591;28;20203;-73
2021/09/27 12:49:53;;;;;;;9.18;6.90;;;23.70;99.90;;;;;;5027821;28;20249;-73
2021/09/27 12:52:29;;;;;;;7.90;6.95;;;23.80;99.90;;;;;;5026884;28;20229;-73
2021/09/27 12:54:56;;;;;;;8.98;7.13;;;23.50;99.90;;;;;;5029724;28;20206;-73
2021/09/27 12:57:27;;;;;;;9.45;7.53;;;23.30;99.90;;;;;;5033931;28;20516;-73
2021/09/27 12:59:57;;;;;;;9.25;8.05;;;23.60;99.90;;;;;;5026121;28;20596;-73
2021/09/27 13:02:29;;;;;;;7.88;7.03;;;23.40;99.90;;;;;;5033222;28;20226;-73
2021/09/27 13:05:06;;;;;;;8.00;7.20;;;23.30;99.90;;;;;;5032366;28;20212;-73
2021/09/27 13:07:41;;;;;;;10.05;7.78;;;23.30;99.90;;;;;;5030221;28;20578;-73
2021/09/27 13:10:20;;;;;;;11.40;8.82;;;23.10;99.90;;;;;;5031289;28;20701;-73
2021/09/27 13:13:09;;;;;;;8.80;7.47;;;23.60;99.90;;;;;;5033297;28;20207;-73